Seyfert, Pennsylvania
Current Conditions -  °F | °C
As of 7:12 PM on Monday 22 Dec 2014 (Local Time) from KRDG Reporting Station
Overcast Overcast  
Wind Chill: 34°   Ceiling: 2300
Heat Index: 38°   Visibility: 8mi
Dew Point: 35°   Wind: 5mph
Humidity: 89%   Direction: 20°NNE
Pressure: 30.18"   Gusts: NA
Location:  40.2313°N, 75.8555°W
Report Text: KRDG 230012Z AUTO 02004KT 8SM SCT014 BKN023 OVC060 03/02 A3018 RMK AO2 T00330017
Loading
Personal Weather Stations






























Interactive Weather Map New forecast layout! Learn more

10-Day Weather Forecast

Advertisements
Track Severe Weather on mobile